Airfield :
LOGIN :

Register | Disclaimer

   EN    FR    IT 

 










Legend :    VFR   Marginal VFR   IFR   Intensive IFR   Very Intensive IFR
Visi :
Ceiling :
>= 8 km
>= 3000ft
5 to 8 km
1000 to 3000 ft
1500m to 5 km
500 to 1000 ft
800 to 1500m
200 to 500 ft
< 800m
< 200 ft
Symbols :   Thunderstorms  Fog  Heavy snow  Heavy precipitations  Wind > 20 kt
SIGMETs :     Misc.  Thunderstorms  Icing  Turbulence  Mountain Waves  Volcanic Ashes







- Airport Elevation : 1548 ft


LKNA - Náměšť Air Base

CURRENT METAR :
  • 180700Z 10006KT 1300 BR OVC009 12/11 Q1018 NOSIG RMK AMB AMB

EXPIRED METARs :
  • 180600Z 09007KT 1200 BR BKN010 11/11 Q1018 NOSIG RMK AMB
  • 180536Z 08009KT 1200 BR BKN010 11/10 Q1018 RMK AMB
  • 180500Z 09007KT 1200 BR NSC 11/10 Q1018 NOSIG RMK AMB AMB
  • 180440Z 09008KT 1400 BR NSC 11/10 Q1018 RMK AMB
  • 180427Z 08007KT 2000 BR NSC 11/10 Q1018 RMK YLO

TAF TAF LKNA
Valid from the 18 at 06:00 until the 19 at 06:00 UTC


180500Z 1806/1906 10006KT 3000 BR NSC
TEMPO 1806/1810 11004KT 0600 FG NSC
BECMG 1810/1812 11006KT 8000 BKN020
BECMG 1814/1816 9999 SCT020
TEMPO 1900/1906 2500 BR BKN020
No reported NOTAMs for that airfield.



MET'MAP, your aeronautical weather chart ! - Copyright ORBIFLY December 2007 - Disclaimer

ORBIFLY MET'MAP TEAM :

Programming & Development : Alexandra Zaïnal
Concept & Development : Baudouin d'Aumeries
Co-Development & Prog : Marc-Olivier Méhu
Technical & hardware support : Manuel Goepfert

Contact : metmap@orbifly.com




SOURCES & CREDITS :

   NOAA